sensor_id;sensor_type;location;lat;lon;timestamp;P1;durP1;ratioP1;P2;durP2;ratioP2
61389;SDS011;47260;48.274;19.814;2023-02-11T04:01:02;50.00;;;16.07;;
61389;SDS011;47260;48.274;19.814;2023-02-11T04:02:35;82.30;;;36.33;;
61389;SDS011;47260;48.274;19.814;2023-02-11T04:04:08;91.63;;;38.40;;
61389;SDS011;47260;48.274;19.814;2023-02-11T04:05:39;103.25;;;42.17;;
61389;SDS011;47260;48.274;19.814;2023-02-11T04:07:12;105.18;;;44.63;;
61389;SDS011;47260;48.274;19.814;2023-02-11T04:08:44;112.68;;;45.20;;
61389;SDS011;47260;48.274;19.814;2023-02-11T04:10:16;107.32;;;45.45;;
61389;SDS011;47260;48.274;19.814;2023-02-11T04:11:48;104.20;;;42.30;;
61389;SDS011;47260;48.274;19.814;2023-02-11T04:13:19;95.90;;;44.30;;
61389;SDS011;47260;48.274;19.814;2023-02-11T04:14:51;103.10;;;45.33;;
61389;SDS011;47260;48.274;19.814;2023-02-11T04:16:22;101.30;;;43.15;;
61389;SDS011;47260;48.274;19.814;2023-02-11T04:17:53;103.93;;;44.10;;
61389;SDS011;47260;48.274;19.814;2023-02-11T04:19:25;97.40;;;45.20;;
61389;SDS011;47260;48.274;19.814;2023-02-11T04:20:57;101.10;;;43.83;;
61389;SDS011;47260;48.274;19.814;2023-02-11T04:22:29;103.75;;;43.53;;
61389;SDS011;47260;48.274;19.814;2023-02-11T04:24:01;97.82;;;42.65;;
61389;SDS011;47260;48.274;19.814;2023-02-11T04:25:33;98.57;;;42.55;;
61389;SDS011;47260;48.274;19.814;2023-02-11T04:27:05;103.68;;;43.08;;
61389;SDS011;47260;48.274;19.814;2023-02-11T04:28:36;104.75;;;44.53;;
61389;SDS011;47260;48.274;19.814;2023-02-11T04:30:07;93.65;;;43.10;;
61389;SDS011;47260;48.274;19.814;2023-02-11T04:31:42;112.25;;;47.55;;
61389;SDS011;47260;48.274;19.814;2023-02-11T04:33:13;104.55;;;45.97;;
61389;SDS011;47260;48.274;19.814;2023-02-11T04:34:45;108.32;;;45.28;;
61389;SDS011;47260;48.274;19.814;2023-02-11T04:36:17;105.63;;;45.75;;
61389;SDS011;47260;48.274;19.814;2023-02-11T04:37:50;108.45;;;45.67;;
61389;SDS011;47260;48.274;19.814;2023-02-11T04:39:22;93.78;;;44.75;;
61389;SDS011;47260;48.274;19.814;2023-02-11T04:40:53;101.07;;;44.58;;
61389;SDS011;47260;48.274;19.814;2023-02-11T04:42:25;96.97;;;44.38;;
61389;SDS011;47260;48.274;19.814;2023-02-11T04:43:57;100.38;;;43.50;;
61389;SDS011;47260;48.274;19.814;2023-02-11T04:45:28;101.28;;;46.00;;
61389;SDS011;47260;48.274;19.814;2023-02-11T04:46:59;99.43;;;42.70;;
61389;SDS011;47260;48.274;19.814;2023-02-11T04:48:31;111.00;;;43.88;;
61389;SDS011;47260;48.274;19.814;2023-02-11T04:50:04;96.68;;;43.70;;
61389;SDS011;47260;48.274;19.814;2023-02-11T04:51:36;100.68;;;43.60;;
61389;SDS011;47260;48.274;19.814;2023-02-11T04:53:09;92.40;;;41.13;;
61389;SDS011;47260;48.274;19.814;2023-02-11T04:54:39;98.72;;;42.50;;
61389;SDS011;47260;48.274;19.814;2023-02-11T04:56:11;102.05;;;45.08;;
61389;SDS011;47260;48.274;19.814;2023-02-11T04:57:42;96.13;;;43.20;;
61389;SDS011;47260;48.274;19.814;2023-02-11T04:59:14;94.55;;;42.90;;
61389;SDS011;47260;48.274;19.814;2023-02-11T05:00:46;96.05;;;41.28;;
61389;SDS011;47260;48.274;19.814;2023-02-11T05:02:17;84.07;;;37.78;;
61389;SDS011;47260;48.274;19.814;2023-02-11T05:03:49;100.97;;;42.63;;
61389;SDS011;47260;48.274;19.814;2023-02-11T05:05:21;105.07;;;43.15;;
61389;SDS011;47260;48.274;19.814;2023-02-11T05:06:52;101.82;;;43.15;;
61389;SDS011;47260;48.274;19.814;2023-02-11T05:08:25;100.20;;;43.78;;
61389;SDS011;47260;48.274;19.814;2023-02-11T05:09:56;106.40;;;45.92;;
61389;SDS011;47260;48.274;19.814;2023-02-11T05:11:28;111.38;;;47.70;;
61389;SDS011;47260;48.274;19.814;2023-02-11T05:12:59;104.15;;;46.95;;
61389;SDS011;47260;48.274;19.814;2023-02-11T05:14:30;130.02;;;56.25;;
61389;SDS011;47260;48.274;19.814;2023-02-11T05:16:02;132.82;;;54.28;;
61389;SDS011;47260;48.274;19.814;2023-02-11T05:17:34;125.90;;;53.90;;
61389;SDS011;47260;48.274;19.814;2023-02-11T05:19:06;120.90;;;53.05;;
61389;SDS011;47260;48.274;19.814;2023-02-11T05:20:38;123.10;;;52.95;;
61389;SDS011;47260;48.274;19.814;2023-02-11T05:22:09;103.85;;;50.13;;
61389;SDS011;47260;48.274;19.814;2023-02-11T05:23:42;116.82;;;49.88;;
61389;SDS011;47260;48.274;19.814;2023-02-11T05:25:14;118.03;;;52.38;;
61389;SDS011;47260;48.274;19.814;2023-02-11T05:26:46;115.88;;;50.72;;
61389;SDS011;47260;48.274;19.814;2023-02-11T05:28:18;121.47;;;53.38;;
61389;SDS011;47260;48.274;19.814;2023-02-11T05:29:49;122.05;;;49.10;;
61389;SDS011;47260;48.274;19.814;2023-02-11T05:31:20;126.38;;;53.47;;
61389;SDS011;47260;48.274;19.814;2023-02-11T05:32:52;115.72;;;50.03;;
61389;SDS011;47260;48.274;19.814;2023-02-11T05:34:23;124.35;;;50.88;;
61389;SDS011;47260;48.274;19.814;2023-02-11T05:35:56;119.70;;;51.58;;
61389;SDS011;47260;48.274;19.814;2023-02-11T05:37:29;116.50;;;49.90;;
61389;SDS011;47260;48.274;19.814;2023-02-11T05:39:02;118.45;;;49.22;;
61389;SDS011;47260;48.274;19.814;2023-02-11T05:40:34;103.60;;;48.35;;
61389;SDS011;47260;48.274;19.814;2023-02-11T05:42:05;109.55;;;47.70;;
61389;SDS011;47260;48.274;19.814;2023-02-11T05:43:37;111.30;;;51.42;;
61389;SDS011;47260;48.274;19.814;2023-02-11T05:45:09;111.07;;;48.25;;
61389;SDS011;47260;48.274;19.814;2023-02-11T05:46:40;118.25;;;52.13;;
61389;SDS011;47260;48.274;19.814;2023-02-11T05:48:11;124.75;;;54.20;;
61389;SDS011;47260;48.274;19.814;2023-02-11T05:49:43;124.18;;;54.67;;
61389;SDS011;47260;48.274;19.814;2023-02-11T05:51:15;118.70;;;54.08;;
61389;SDS011;47260;48.274;19.814;2023-02-11T05:52:46;125.63;;;56.10;;
61389;SDS011;47260;48.274;19.814;2023-02-11T05:54:19;128.18;;;56.47;;
61389;SDS011;47260;48.274;19.814;2023-02-11T05:55:51;116.35;;;52.40;;
61389;SDS011;47260;48.274;19.814;2023-02-11T05:57:23;115.82;;;51.53;;
61389;SDS011;47260;48.274;19.814;2023-02-11T05:58:55;121.30;;;52.25;;
61389;SDS011;47260;48.274;19.814;2023-02-11T06:00:28;113.53;;;51.80;;
61389;SDS011;47260;48.274;19.814;2023-02-11T06:02:00;117.40;;;51.80;;
61389;SDS011;47260;48.274;19.814;2023-02-11T06:03:32;123.18;;;52.83;;
61389;SDS011;47260;48.274;19.814;2023-02-11T06:05:03;110.97;;;49.55;;
61389;SDS011;47260;48.274;19.814;2023-02-11T06:06:34;123.45;;;51.35;;
61389;SDS011;47260;48.274;19.814;2023-02-11T06:08:06;113.68;;;47.20;;
61389;SDS011;47260;48.274;19.814;2023-02-11T06:09:39;110.53;;;49.83;;
61389;SDS011;47260;48.274;19.814;2023-02-11T06:11:13;121.15;;;51.13;;
61389;SDS011;47260;48.274;19.814;2023-02-11T06:12:45;117.47;;;49.00;;
61389;SDS011;47260;48.274;19.814;2023-02-11T06:14:16;111.00;;;51.03;;
61389;SDS011;47260;48.274;19.814;2023-02-11T06:15:54;121.40;;;50.90;;
61389;SDS011;47260;48.274;19.814;2023-02-11T06:17:26;123.20;;;46.88;;
61389;SDS011;47260;48.274;19.814;2023-02-11T06:19:00;117.88;;;47.47;;
61389;SDS011;47260;48.274;19.814;2023-02-11T06:20:32;102.40;;;46.92;;
61389;SDS011;47260;48.274;19.814;2023-02-11T06:22:04;106.88;;;49.00;;
61389;SDS011;47260;48.274;19.814;2023-02-11T06:23:36;107.93;;;44.25;;
61389;SDS011;47260;48.274;19.814;2023-02-11T06:25:09;115.70;;;48.85;;
61389;SDS011;47260;48.274;19.814;2023-02-11T06:26:42;117.85;;;49.83;;
61389;SDS011;47260;48.274;19.814;2023-02-11T06:28:14;130.38;;;55.25;;
61389;SDS011;47260;48.274;19.814;2023-02-11T06:29:46;131.60;;;56.42;;
61389;SDS011;47260;48.274;19.814;2023-02-11T06:31:18;156.43;;;62.75;;
61389;SDS011;47260;48.274;19.814;2023-02-11T06:32:50;131.85;;;56.60;;
61389;SDS011;47260;48.274;19.814;2023-02-11T06:34:22;144.73;;;61.60;;
61389;SDS011;47260;48.274;19.814;2023-02-11T06:35:53;139.50;;;59.08;;
61389;SDS011;47260;48.274;19.814;2023-02-11T06:37:25;141.07;;;60.28;;
61389;SDS011;47260;48.274;19.814;2023-02-11T06:38:57;136.98;;;59.58;;
61389;SDS011;47260;48.274;19.814;2023-02-11T06:40:30;136.80;;;57.17;;
61389;SDS011;47260;48.274;19.814;2023-02-11T06:42:02;136.63;;;58.75;;
61389;SDS011;47260;48.274;19.814;2023-02-11T06:43:32;143.88;;;58.80;;
61389;SDS011;47260;48.274;19.814;2023-02-11T06:45:04;117.85;;;52.63;;
61389;SDS011;47260;48.274;19.814;2023-02-11T06:46:38;118.00;;;52.42;;
61389;SDS011;47260;48.274;19.814;2023-02-11T06:48:09;117.38;;;51.38;;
61389;SDS011;47260;48.274;19.814;2023-02-11T06:49:41;96.78;;;45.42;;
61389;SDS011;47260;48.274;19.814;2023-02-11T06:51:13;90.88;;;39.30;;
61389;SDS011;47260;48.274;19.814;2023-02-11T06:52:47;87.70;;;40.97;;
61389;SDS011;47260;48.274;19.814;2023-02-11T06:54:19;87.70;;;41.42;;
61389;SDS011;47260;48.274;19.814;2023-02-11T06:55:52;90.13;;;42.08;;
61389;SDS011;47260;48.274;19.814;2023-02-11T06:57:23;98.90;;;44.78;;
61389;SDS011;47260;48.274;19.814;2023-02-11T06:58:54;101.10;;;47.22;;
61389;SDS011;47260;48.274;19.814;2023-02-11T07:00:27;101.55;;;47.45;;
61389;SDS011;47260;48.274;19.814;2023-02-11T07:01:59;99.93;;;48.13;;
61389;SDS011;47260;48.274;19.814;2023-02-11T07:03:31;105.30;;;49.15;;
61389;SDS011;47260;48.274;19.814;2023-02-11T07:05:04;116.00;;;50.45;;
61389;SDS011;47260;48.274;19.814;2023-02-11T07:06:36;102.43;;;49.83;;
61389;SDS011;47260;48.274;19.814;2023-02-11T07:08:08;99.68;;;48.28;;
61389;SDS011;47260;48.274;19.814;2023-02-11T07:09:38;96.45;;;46.70;;
61389;SDS011;47260;48.274;19.814;2023-02-11T07:11:12;99.60;;;48.53;;
61389;SDS011;47260;48.274;19.814;2023-02-11T07:12:45;96.90;;;44.47;;
61389;SDS011;47260;48.274;19.814;2023-02-11T07:14:17;93.82;;;44.30;;
61389;SDS011;47260;48.274;19.814;2023-02-11T07:15:48;103.78;;;45.53;;
61389;SDS011;47260;48.274;19.814;2023-02-11T07:17:20;97.30;;;43.95;;
61389;SDS011;47260;48.274;19.814;2023-02-11T07:18:52;101.22;;;44.15;;
61389;SDS011;47260;48.274;19.814;2023-02-11T07:20:24;105.45;;;46.58;;
61389;SDS011;47260;48.274;19.814;2023-02-11T07:21:56;96.57;;;43.83;;
61389;SDS011;47260;48.274;19.814;2023-02-11T07:23:28;105.18;;;46.00;;
61389;SDS011;47260;48.274;19.814;2023-02-11T07:24:59;103.38;;;45.75;;
61389;SDS011;47260;48.274;19.814;2023-02-11T07:26:32;102.88;;;48.38;;
61389;SDS011;47260;48.274;19.814;2023-02-11T07:28:04;99.25;;;45.25;;
61389;SDS011;47260;48.274;19.814;2023-02-11T07:29:36;101.38;;;45.75;;
61389;SDS011;47260;48.274;19.814;2023-02-11T07:31:08;108.20;;;45.45;;
61389;SDS011;47260;48.274;19.814;2023-02-11T07:32:40;96.85;;;45.03;;
61389;SDS011;47260;48.274;19.814;2023-02-11T07:34:12;100.38;;;43.72;;
61389;SDS011;47260;48.274;19.814;2023-02-11T07:35:44;100.18;;;46.50;;
61389;SDS011;47260;48.274;19.814;2023-02-11T07:37:15;99.88;;;48.42;;
61389;SDS011;47260;48.274;19.814;2023-02-11T07:38:47;109.45;;;48.63;;
61389;SDS011;47260;48.274;19.814;2023-02-11T07:40:20;106.55;;;47.20;;
61389;SDS011;47260;48.274;19.814;2023-02-11T07:41:53;99.28;;;44.00;;
61389;SDS011;47260;48.274;19.814;2023-02-11T07:43:25;94.78;;;44.83;;
61389;SDS011;47260;48.274;19.814;2023-02-11T07:44:57;93.47;;;45.78;;
61389;SDS011;47260;48.274;19.814;2023-02-11T07:46:28;84.72;;;43.15;;
61389;SDS011;47260;48.274;19.814;2023-02-11T07:48:00;102.75;;;43.85;;
61389;SDS011;47260;48.274;19.814;2023-02-11T07:49:32;99.55;;;41.75;;
61389;SDS011;47260;48.274;19.814;2023-02-11T07:51:04;99.95;;;47.38;;
61389;SDS011;47260;48.274;19.814;2023-02-11T07:52:35;103.55;;;45.90;;
61389;SDS011;47260;48.274;19.814;2023-02-11T07:54:08;92.07;;;44.03;;
61389;SDS011;47260;48.274;19.814;2023-02-11T07:55:41;91.82;;;43.92;;
61389;SDS011;47260;48.274;19.814;2023-02-11T07:57:14;99.20;;;46.35;;
61389;SDS011;47260;48.274;19.814;2023-02-11T07:58:46;93.70;;;43.88;;
61389;SDS011;47260;48.274;19.814;2023-02-11T08:00:18;86.28;;;41.33;;
61389;SDS011;47260;48.274;19.814;2023-02-11T08:01:50;84.22;;;41.63;;
61389;SDS011;47260;48.274;19.814;2023-02-11T08:03:22;90.75;;;40.67;;
61389;SDS011;47260;48.274;19.814;2023-02-11T08:04:53;82.85;;;40.33;;
61389;SDS011;47260;48.274;19.814;2023-02-11T08:06:25;90.70;;;38.90;;
61389;SDS011;47260;48.274;19.814;2023-02-11T08:07:58;73.28;;;37.88;;
61389;SDS011;47260;48.274;19.814;2023-02-11T08:09:30;81.28;;;39.22;;
61389;SDS011;47260;48.274;19.814;2023-02-11T08:11:04;84.40;;;39.75;;
61389;SDS011;47260;48.274;19.814;2023-02-11T08:12:39;76.68;;;38.67;;
61389;SDS011;47260;48.274;19.814;2023-02-11T08:14:11;86.45;;;39.92;;
61389;SDS011;47260;48.274;19.814;2023-02-11T08:15:43;81.07;;;39.05;;
61389;SDS011;47260;48.274;19.814;2023-02-11T08:17:14;89.18;;;42.72;;
61389;SDS011;47260;48.274;19.814;2023-02-11T08:18:46;84.03;;;41.47;;
61389;SDS011;47260;48.274;19.814;2023-02-11T08:20:19;82.75;;;39.28;;
61389;SDS011;47260;48.274;19.814;2023-02-11T08:21:51;81.22;;;38.35;;
61389;SDS011;47260;48.274;19.814;2023-02-11T08:23:25;83.72;;;37.17;;
61389;SDS011;47260;48.274;19.814;2023-02-11T08:24:57;90.70;;;39.50;;
61389;SDS011;47260;48.274;19.814;2023-02-11T08:26:29;81.20;;;40.28;;
61389;SDS011;47260;48.274;19.814;2023-02-11T08:28:05;76.50;;;39.08;;
61389;SDS011;47260;48.274;19.814;2023-02-11T08:29:38;77.45;;;36.97;;
61389;SDS011;47260;48.274;19.814;2023-02-11T08:31:10;88.82;;;39.95;;
61389;SDS011;47260;48.274;19.814;2023-02-11T08:32:44;84.90;;;40.55;;
61389;SDS011;47260;48.274;19.814;2023-02-11T08:34:15;84.68;;;41.35;;
61389;SDS011;47260;48.274;19.814;2023-02-11T08:35:48;84.45;;;41.13;;
61389;SDS011;47260;48.274;19.814;2023-02-11T08:37:20;84.43;;;41.33;;
61389;SDS011;47260;48.274;19.814;2023-02-11T08:38:54;90.75;;;42.08;;
61389;SDS011;47260;48.274;19.814;2023-02-11T08:40:26;92.82;;;43.90;;
61389;SDS011;47260;48.274;19.814;2023-02-11T08:41:58;82.93;;;40.38;;
61389;SDS011;47260;48.274;19.814;2023-02-11T08:43:31;91.40;;;41.90;;
61389;SDS011;47260;48.274;19.814;2023-02-11T08:45:03;83.50;;;41.28;;
61389;SDS011;47260;48.274;19.814;2023-02-11T08:46:35;80.13;;;40.75;;
61389;SDS011;47260;48.274;19.814;2023-02-11T08:48:07;79.57;;;40.33;;
61389;SDS011;47260;48.274;19.814;2023-02-11T08:49:38;95.88;;;43.05;;
61389;SDS011;47260;48.274;19.814;2023-02-11T08:51:12;79.03;;;40.55;;
61389;SDS011;47260;48.274;19.814;2023-02-11T08:52:45;86.68;;;40.35;;
61389;SDS011;47260;48.274;19.814;2023-02-11T08:54:17;86.90;;;40.92;;
61389;SDS011;47260;48.274;19.814;2023-02-11T08:55:49;84.07;;;39.72;;
61389;SDS011;47260;48.274;19.814;2023-02-11T08:57:21;82.47;;;39.60;;
61389;SDS011;47260;48.274;19.814;2023-02-11T08:58:54;84.25;;;40.70;;
61389;SDS011;47260;48.274;19.814;2023-02-11T09:00:26;84.60;;;41.70;;
